createdAt,value
2018-09-17T00:00:12.214Z,15.30
2018-09-17T00:02:40.624Z,15.20
2018-09-17T00:05:09.007Z,15.10
2018-09-17T00:07:37.870Z,15.00
2018-09-17T00:10:06.246Z,15.10
2018-09-17T00:12:34.640Z,14.90
2018-09-17T00:15:03.032Z,14.90
2018-09-17T00:17:31.660Z,14.70
2018-09-17T00:20:00.066Z,14.40
2018-09-17T00:22:29.661Z,14.70
2018-09-17T00:24:58.062Z,14.60
2018-09-17T00:27:26.412Z,14.60
2018-09-17T00:29:54.760Z,14.70
2018-09-17T00:32:23.180Z,14.90
2018-09-17T00:34:51.522Z,14.90
2018-09-17T00:37:19.976Z,14.60
2018-09-17T00:39:48.318Z,14.50
2018-09-17T00:42:16.690Z,14.50
2018-09-17T00:44:45.769Z,14.70
2018-09-17T00:47:14.142Z,14.40
2018-09-17T00:49:43.018Z,14.20
2018-09-17T00:52:11.420Z,14.30
2018-09-17T00:54:40.738Z,14.40
2018-09-17T00:57:09.091Z,14.40
2018-09-17T00:59:37.467Z,14.40
2018-09-17T01:02:05.830Z,14.30
2018-09-17T01:04:34.209Z,14.10
2018-09-17T01:07:02.573Z,14.20
2018-09-17T01:09:36.325Z,14.10
2018-09-17T01:12:04.718Z,14.10
2018-09-17T01:14:33.070Z,14.10
2018-09-17T01:17:01.403Z,14.10
2018-09-17T01:19:29.742Z,14.00
2018-09-17T01:21:58.099Z,14.00
2018-09-17T01:24:26.471Z,14.00
2018-09-17T01:26:54.835Z,14.00
2018-09-17T01:29:23.273Z,13.90
2018-09-17T01:31:51.670Z,13.90
2018-09-17T01:34:20.222Z,13.80
2018-09-17T01:36:48.643Z,13.80
2018-09-17T01:39:16.984Z,13.70
2018-09-17T01:41:45.323Z,13.80
2018-09-17T01:44:13.758Z,13.70
2018-09-17T01:46:42.119Z,14.00
2018-09-17T01:49:10.735Z,13.60
2018-09-17T01:51:39.215Z,13.60
2018-09-17T01:54:07.569Z,13.50
2018-09-17T01:56:35.943Z,13.50
2018-09-17T01:59:05.495Z,13.50
2018-09-17T02:01:33.835Z,13.50
2018-09-17T02:04:02.206Z,13.40
2018-09-17T02:06:31.151Z,13.40
2018-09-17T02:08:59.495Z,13.50
2018-09-17T02:11:27.875Z,13.40
2018-09-17T02:13:56.249Z,13.40
2018-09-17T02:16:24.559Z,13.40
2018-09-17T02:18:52.999Z,13.40
2018-09-17T02:21:21.372Z,13.40
2018-09-17T02:23:49.958Z,13.40
2018-09-17T02:26:18.388Z,13.50
2018-09-17T02:28:46.759Z,13.30
2018-09-17T02:31:15.089Z,13.40
2018-09-17T02:33:43.463Z,13.50
2018-09-17T02:36:11.858Z,13.40
2018-09-17T02:38:40.205Z,13.50
2018-09-17T02:41:08.592Z,13.40
2018-09-17T02:43:36.906Z,13.30
2018-09-17T02:46:05.331Z,13.30
2018-09-17T02:48:33.672Z,13.30
2018-09-17T02:51:02.320Z,13.30
2018-09-17T02:53:30.689Z,13.20
2018-09-17T02:55:59.038Z,13.20
2018-09-17T02:58:27.403Z,13.20
2018-09-17T03:00:55.776Z,13.20
2018-09-17T03:03:24.147Z,13.20
2018-09-17T03:05:54.529Z,13.20
2018-09-17T03:08:22.891Z,13.10
2018-09-17T03:10:51.253Z,13.10
2018-09-17T03:13:19.695Z,13.10
2018-09-17T03:15:52.334Z,13.00
2018-09-17T03:18:33.551Z,12.90
2018-09-17T03:21:02.728Z,12.90
2018-09-17T03:23:31.266Z,12.80
2018-09-17T03:25:59.679Z,12.80
2018-09-17T03:28:28.013Z,12.80
2018-09-17T03:30:57.059Z,12.70
2018-09-17T03:33:25.493Z,12.70
2018-09-17T03:35:53.918Z,12.80
2018-09-17T03:38:35.517Z,12.70
2018-09-17T03:41:04.956Z,12.80
2018-09-17T03:43:34.307Z,12.80
2018-09-17T03:46:02.678Z,12.70
2018-09-17T03:48:32.041Z,12.60
2018-09-17T03:51:00.791Z,12.70
2018-09-17T03:53:29.395Z,12.70
2018-09-17T03:55:57.694Z,12.60
2018-09-17T03:58:26.564Z,12.70
2018-09-17T04:00:54.903Z,12.80
2018-09-17T04:03:23.317Z,12.80
2018-09-17T04:05:51.721Z,12.70
2018-09-17T04:08:20.074Z,12.70
2018-09-17T04:10:48.445Z,12.80
2018-09-17T04:13:16.749Z,12.70
2018-09-17T04:15:45.106Z,12.80
2018-09-17T04:18:13.455Z,12.60
2018-09-17T04:20:42.282Z,12.60
2018-09-17T04:23:10.715Z,12.60
2018-09-17T04:25:39.128Z,12.70
2018-09-17T04:28:07.461Z,12.70
2018-09-17T04:30:35.896Z,12.70
2018-09-17T04:33:05.680Z,12.60
2018-09-17T04:35:34.000Z,12.60
2018-09-17T04:38:02.436Z,12.60
2018-09-17T04:40:30.787Z,12.50
2018-09-17T04:42:59.196Z,12.60
2018-09-17T04:45:27.596Z,12.60
2018-09-17T04:47:55.960Z,12.60
2018-09-17T04:50:24.412Z,12.60
2018-09-17T04:52:52.817Z,12.50
2018-09-17T04:55:21.192Z,12.50
2018-09-17T04:57:49.652Z,12.50
2018-09-17T05:00:18.057Z,12.50
2018-09-17T05:02:46.494Z,12.50
2018-09-17T05:05:15.306Z,12.50
2018-09-17T05:07:43.707Z,12.40
2018-09-17T05:10:12.085Z,12.50
2018-09-17T05:12:40.490Z,12.90
2018-09-17T05:15:08.859Z,13.10
2018-09-17T05:17:37.271Z,13.30
2018-09-17T05:20:05.675Z,13.40
2018-09-17T05:22:34.065Z,13.60
2018-09-17T05:25:02.503Z,13.30
2018-09-17T05:27:30.900Z,13.10
2018-09-17T05:29:59.286Z,13.50
2018-09-17T05:32:35.334Z,14.10
2018-09-17T05:35:03.716Z,14.50
2018-09-17T05:37:32.035Z,14.70
2018-09-17T05:40:00.418Z,14.80
2018-09-17T05:42:28.835Z,15.10
2018-09-17T05:44:57.216Z,15.30
2018-09-17T05:47:25.679Z,15.60
2018-09-17T05:49:54.084Z,15.70
2018-09-17T05:52:22.531Z,15.70
2018-09-17T05:54:51.008Z,15.90
2018-09-17T05:57:19.411Z,16.20
2018-09-17T05:59:47.824Z,16.20
2018-09-17T06:02:16.212Z,16.40
2018-09-17T06:04:44.626Z,16.50
2018-09-17T06:07:13.040Z,17.70
2018-09-17T06:09:41.512Z,17.70
2018-09-17T06:12:10.914Z,17.70
2018-09-17T06:14:39.324Z,18.20
2018-09-17T06:17:07.668Z,18.60
2018-09-17T06:19:36.095Z,18.20
2018-09-17T06:22:04.480Z,18.10
2018-09-17T06:24:32.876Z,18.00
2018-09-17T06:27:01.252Z,18.50
2018-09-17T06:29:29.626Z,18.30
2018-09-17T06:31:58.006Z,18.90
2018-09-17T06:34:26.869Z,19.70
2018-09-17T06:39:23.680Z,19.10
2018-09-17T06:41:52.061Z,19.40
2018-09-17T06:44:20.440Z,19.60
2018-09-17T06:46:48.852Z,20.20
2018-09-17T06:49:17.190Z,19.40
2018-09-17T06:51:45.527Z,19.60
2018-09-17T06:54:13.909Z,19.90
2018-09-17T06:56:42.288Z,20.80
2018-09-17T06:59:10.658Z,21.30
2018-09-17T07:01:39.002Z,20.70
2018-09-17T07:04:07.438Z,21.20
2018-09-17T07:06:35.796Z,21.40
2018-09-17T07:09:05.701Z,21.10
2018-09-17T07:11:34.072Z,22.30
2018-09-17T07:14:02.429Z,22.60
2018-09-17T07:16:30.770Z,22.40
2018-09-17T07:18:59.219Z,22.20
2018-09-17T07:21:27.811Z,22.70
2018-09-17T07:23:56.221Z,22.90
2018-09-17T07:26:24.607Z,23.30
2018-09-17T07:28:53.977Z,23.60
2018-09-17T07:31:22.347Z,23.10
2018-09-17T07:33:50.699Z,23.00
2018-09-17T07:36:19.189Z,23.50
2018-09-17T07:38:47.473Z,22.80
2018-09-17T07:41:15.899Z,23.00
2018-09-17T07:43:44.331Z,23.10
2018-09-17T07:46:12.725Z,24.30
2018-09-17T07:48:41.073Z,23.50
2018-09-17T07:51:09.499Z,23.50
2018-09-17T07:53:37.863Z,23.70
2018-09-17T07:56:12.770Z,25.70
2018-09-17T07:58:41.103Z,25.80
2018-09-17T08:01:09.488Z,24.10
2018-09-17T08:03:37.807Z,23.70
2018-09-17T08:06:06.191Z,24.80
2018-09-17T08:08:34.563Z,25.30
2018-09-17T08:11:02.971Z,25.10
2018-09-17T08:13:31.385Z,25.60
2018-09-17T08:15:59.767Z,25.40
2018-09-17T08:18:28.419Z,28.30
2018-09-17T08:20:56.881Z,26.60
2018-09-17T08:23:25.314Z,26.60
2018-09-17T08:25:53.747Z,26.10
2018-09-17T08:28:22.150Z,26.20
2018-09-17T08:30:50.553Z,26.60
2018-09-17T08:33:20.016Z,27.60
2018-09-17T08:35:48.392Z,26.80
2018-09-17T08:38:17.050Z,27.70
2018-09-17T08:40:45.428Z,28.50
2018-09-17T08:43:13.824Z,28.90
2018-09-17T08:45:42.213Z,29.00
2018-09-17T08:48:10.809Z,29.60
2018-09-17T08:50:39.520Z,29.80
2018-09-17T08:53:08.004Z,29.60
2018-09-17T08:55:41.800Z,32.00
2018-09-17T09:00:22.984Z,31.50
2018-09-17T09:02:56.010Z,31.90
2018-09-17T09:05:29.665Z,30.90
2018-09-17T09:07:58.155Z,30.30
2018-09-17T09:10:31.759Z,29.40
2018-09-17T09:13:05.417Z,29.00
2018-09-17T09:15:42.318Z,29.80
2018-09-17T09:18:10.911Z,29.60
2018-09-17T09:20:40.031Z,31.60
2018-09-17T09:23:08.639Z,31.30
2018-09-17T09:25:37.200Z,32.20
2018-09-17T09:28:05.683Z,31.80
2018-09-17T09:30:34.063Z,31.80
2018-09-17T09:33:02.497Z,31.60
2018-09-17T09:35:30.942Z,31.10
2018-09-17T09:37:59.405Z,31.20
2018-09-17T09:40:28.547Z,31.60
2018-09-17T09:42:56.954Z,32.70
2018-09-17T09:45:25.425Z,31.60
2018-09-17T09:47:54.661Z,31.40
2018-09-17T09:50:23.974Z,31.70
2018-09-17T09:52:52.359Z,30.90
2018-09-17T09:55:21.187Z,30.60
2018-09-17T09:57:49.575Z,29.80
2018-09-17T10:00:23.212Z,29.40
2018-09-17T10:02:56.821Z,28.50
2018-09-17T10:05:25.211Z,30.40
2018-09-17T10:07:53.579Z,30.30
2018-09-17T10:10:27.429Z,29.60
2018-09-17T10:13:01.275Z,31.40
2018-09-17T10:15:39.933Z,30.70
2018-09-17T10:18:13.699Z,29.80
2018-09-17T10:20:42.224Z,30.30
2018-09-17T10:23:10.636Z,30.00
2018-09-17T10:25:39.066Z,29.40
2018-09-17T10:28:07.466Z,31.20
2018-09-17T10:30:35.939Z,31.90
2018-09-17T10:33:05.129Z,32.40
2018-09-17T10:35:34.406Z,31.80
2018-09-17T10:38:02.773Z,32.20
2018-09-17T10:40:31.209Z,32.50
2018-09-17T10:42:59.641Z,32.70
2018-09-17T10:45:28.020Z,34.00
2018-09-17T10:47:56.492Z,33.40
2018-09-17T10:50:25.412Z,32.00
2018-09-17T10:52:53.859Z,33.50
2018-09-17T10:55:22.296Z,33.00
2018-09-17T10:57:51.412Z,33.10
2018-09-17T11:00:20.472Z,33.10
2018-09-17T11:02:48.932Z,31.50
2018-09-17T11:05:17.454Z,31.20
2018-09-17T11:07:45.842Z,32.60
2018-09-17T11:10:14.738Z,32.30
2018-09-17T11:12:43.121Z,32.50
2018-09-17T11:15:11.533Z,32.10
2018-09-17T11:17:40.038Z,32.20
2018-09-17T11:20:09.005Z,33.50
2018-09-17T11:22:37.380Z,32.70
2018-09-17T11:25:05.942Z,32.90
2018-09-17T11:27:34.349Z,31.40
2018-09-17T11:30:02.774Z,33.40
2018-09-17T11:32:31.302Z,34.00
2018-09-17T11:34:59.716Z,32.40
2018-09-17T11:37:28.133Z,33.50
2018-09-17T11:39:56.548Z,33.80
2018-09-17T11:42:24.985Z,33.60
2018-09-17T11:44:53.366Z,33.40
2018-09-17T11:47:21.994Z,34.00
2018-09-17T11:49:50.367Z,35.10
2018-09-17T11:52:18.746Z,34.60
2018-09-17T11:54:47.143Z,34.30
2018-09-17T11:57:15.546Z,33.00
2018-09-17T11:59:43.941Z,32.20
2018-09-17T12:02:17.652Z,34.50
2018-09-17T12:04:51.436Z,35.60
2018-09-17T12:07:25.169Z,34.60
2018-09-17T12:09:53.628Z,35.40
2018-09-17T12:12:22.062Z,34.60
2018-09-17T12:14:50.622Z,35.20
2018-09-17T12:17:19.702Z,35.60
2018-09-17T12:19:48.225Z,35.30
2018-09-17T12:22:16.649Z,35.10
2018-09-17T12:24:45.096Z,32.90
2018-09-17T12:27:13.509Z,32.30
2018-09-17T12:29:41.894Z,31.80
2018-09-17T12:32:10.359Z,33.90
2018-09-17T12:34:38.772Z,34.30
2018-09-17T12:37:07.258Z,34.50
2018-09-17T12:39:35.649Z,34.10
2018-09-17T12:42:04.099Z,34.00
2018-09-17T12:44:32.564Z,34.10
2018-09-17T12:47:00.976Z,33.30
2018-09-17T12:49:29.378Z,33.30
2018-09-17T12:51:57.877Z,33.40
2018-09-17T12:54:26.468Z,33.40
2018-09-17T12:56:54.934Z,34.40
2018-09-17T12:59:23.365Z,33.90
2018-09-17T13:01:51.732Z,33.80
2018-09-17T13:04:20.183Z,34.20
2018-09-17T13:06:48.683Z,32.70
2018-09-17T13:09:17.083Z,33.40
2018-09-17T13:11:46.661Z,33.00
2018-09-17T13:14:15.093Z,33.00
2018-09-17T13:16:43.477Z,33.10
2018-09-17T13:19:12.806Z,31.60
2018-09-17T13:21:41.242Z,31.00
2018-09-17T13:24:09.623Z,32.00
2018-09-17T13:26:38.581Z,32.70
2018-09-17T13:29:06.977Z,31.00
2018-09-17T13:31:35.501Z,30.30
2018-09-17T13:34:03.981Z,30.00
2018-09-17T13:36:32.387Z,29.60
2018-09-17T13:39:00.789Z,29.70
2018-09-17T13:41:29.245Z,31.00
2018-09-17T13:43:57.684Z,31.60
2018-09-17T13:46:26.200Z,30.90
2018-09-17T13:48:55.213Z,31.20
2018-09-17T13:51:24.074Z,31.10
2018-09-17T13:53:52.425Z,31.20
2018-09-17T13:56:20.885Z,30.70
2018-09-17T13:58:49.325Z,29.80
2018-09-17T14:01:17.717Z,30.10
2018-09-17T14:03:46.267Z,29.80
2018-09-17T14:06:14.717Z,29.70
2018-09-17T14:08:43.166Z,29.60
2018-09-17T14:11:11.575Z,29.50
2018-09-17T14:13:40.947Z,30.10
2018-09-17T14:16:10.055Z,30.20
2018-09-17T14:18:39.356Z,29.30
2018-09-17T14:21:08.095Z,29.70
2018-09-17T14:23:36.517Z,29.20
2018-09-17T14:26:05.090Z,29.30
2018-09-17T14:28:33.514Z,29.20
2018-09-17T14:31:01.908Z,29.50
2018-09-17T14:33:35.493Z,29.20
2018-09-17T14:36:04.014Z,29.40
2018-09-17T14:38:32.400Z,28.80
2018-09-17T14:41:00.837Z,28.30
2018-09-17T14:43:29.231Z,28.40
2018-09-17T14:45:58.063Z,27.90
2018-09-17T14:48:26.487Z,28.60
2018-09-17T14:50:55.049Z,28.50
2018-09-17T14:53:23.458Z,28.70
2018-09-17T14:55:51.842Z,29.10
2018-09-17T14:58:20.372Z,28.70
2018-09-17T15:00:48.847Z,28.40
2018-09-17T15:03:17.243Z,28.20
2018-09-17T15:05:46.499Z,28.40
2018-09-17T15:08:15.156Z,28.00
2018-09-17T15:10:43.333Z,27.80
2018-09-17T15:13:11.684Z,27.80
2018-09-17T15:15:46.648Z,28.10
2018-09-17T15:18:15.912Z,28.00
2018-09-17T15:20:44.418Z,27.80
2018-09-17T15:23:12.959Z,27.90
2018-09-17T15:25:41.391Z,27.70
2018-09-17T15:28:09.890Z,27.60
2018-09-17T15:30:38.303Z,27.60
2018-09-17T15:33:06.990Z,27.60
2018-09-17T15:35:35.975Z,27.60
2018-09-17T15:38:04.494Z,27.50
2018-09-17T15:40:33.057Z,27.40
2018-09-17T15:43:01.755Z,27.40
2018-09-17T15:45:30.336Z,27.40
2018-09-17T15:47:58.775Z,27.30
2018-09-17T15:50:27.189Z,27.40
2018-09-17T15:52:55.665Z,27.30
2018-09-17T15:55:24.753Z,27.40
2018-09-17T15:57:53.254Z,27.30
2018-09-17T16:00:21.997Z,27.10
2018-09-17T16:02:50.556Z,27.20
2018-09-17T16:05:19.348Z,27.00
2018-09-17T16:07:47.735Z,27.00
2018-09-17T16:10:16.795Z,26.90
2018-09-17T16:12:45.255Z,26.80
2018-09-17T16:15:13.759Z,26.80
2018-09-17T16:17:42.171Z,26.80
2018-09-17T16:20:11.540Z,26.70
2018-09-17T16:22:39.933Z,26.60
2018-09-17T16:25:08.368Z,26.50
2018-09-17T16:27:36.814Z,26.60
2018-09-17T16:30:06.767Z,26.30
2018-09-17T16:32:35.162Z,26.30
2018-09-17T16:35:04.834Z,26.20
2018-09-17T16:37:33.272Z,26.20
2018-09-17T16:40:01.640Z,26.10
2018-09-17T16:42:30.092Z,26.00
2018-09-17T16:44:58.581Z,26.00
2018-09-17T16:47:27.091Z,25.90
2018-09-17T16:49:55.686Z,25.80
2018-09-17T16:52:24.130Z,25.70
2018-09-17T16:54:52.534Z,25.60
2018-09-17T16:57:20.941Z,25.60
2018-09-17T16:59:49.473Z,25.50
2018-09-17T17:02:17.876Z,25.40
2018-09-17T17:04:46.401Z,25.30
2018-09-17T17:07:14.816Z,25.20
2018-09-17T17:09:43.195Z,25.10
2018-09-17T17:12:11.611Z,25.10
2018-09-17T17:14:39.972Z,24.90
2018-09-17T17:17:08.669Z,24.80
2018-09-17T17:19:37.491Z,24.70
2018-09-17T17:22:06.186Z,24.60
2018-09-17T17:24:35.503Z,24.50
2018-09-17T17:27:03.939Z,24.50
2018-09-17T17:29:32.360Z,24.40
2018-09-17T17:32:00.930Z,24.30
2018-09-17T17:34:29.364Z,24.20
2018-09-17T17:36:57.800Z,24.00
2018-09-17T17:39:26.438Z,23.90
2018-09-17T17:41:54.909Z,23.90
2018-09-17T17:44:24.504Z,23.80
2018-09-17T17:46:53.238Z,23.70
2018-09-17T17:49:21.660Z,23.70
2018-09-17T17:51:50.198Z,23.60
2018-09-17T17:54:18.780Z,23.60
2018-09-17T17:56:48.633Z,23.40
2018-09-17T17:59:17.157Z,23.30
2018-09-17T18:01:45.668Z,23.20
2018-09-17T18:04:14.102Z,22.90
2018-09-17T18:06:42.580Z,23.10
2018-09-17T18:09:11.897Z,23.00
2018-09-17T18:11:40.858Z,23.00
2018-09-17T18:14:09.649Z,23.00
2018-09-17T18:16:38.357Z,22.90
2018-09-17T18:19:07.674Z,22.80
2018-09-17T18:21:36.166Z,22.70
2018-09-17T18:24:07.760Z,22.60
2018-09-17T18:26:36.268Z,22.50
2018-09-17T18:29:04.752Z,22.50
2018-09-17T18:31:33.295Z,22.50
2018-09-17T18:34:01.752Z,22.50
2018-09-17T18:36:30.234Z,22.30
2018-09-17T18:38:58.872Z,22.30
2018-09-17T18:41:27.247Z,22.30
2018-09-17T18:43:55.657Z,22.20
2018-09-17T18:46:24.115Z,22.10
2018-09-17T18:48:52.544Z,22.10
2018-09-17T18:51:21.026Z,22.10
2018-09-17T18:53:49.427Z,22.00
2018-09-17T18:56:18.105Z,21.90
2018-09-17T18:58:46.850Z,21.90
2018-09-17T19:01:15.259Z,21.80
2018-09-17T19:03:43.795Z,21.80
2018-09-17T19:06:12.307Z,21.80
2018-09-17T19:08:40.752Z,21.80
2018-09-17T19:11:09.482Z,21.70
2018-09-17T19:13:37.962Z,21.60
2018-09-17T19:16:06.557Z,21.60
2018-09-17T19:18:35.219Z,21.50
2018-09-17T19:21:03.979Z,21.50
2018-09-17T19:23:37.293Z,21.40
2018-09-17T19:26:05.756Z,21.30
2018-09-17T19:28:39.781Z,21.30
2018-09-17T19:31:08.231Z,21.30
2018-09-17T19:33:36.749Z,21.20
2018-09-17T19:36:05.609Z,21.30
2018-09-17T19:38:39.441Z,21.30
2018-09-17T19:41:08.571Z,21.10
2018-09-17T19:43:36.987Z,21.10
2018-09-17T19:46:11.449Z,21.20
2018-09-17T19:48:39.925Z,21.10
2018-09-17T19:51:13.805Z,21.10
2018-09-17T19:53:42.833Z,21.00
2018-09-17T19:56:11.287Z,21.10
2018-09-17T19:58:45.078Z,21.00
2018-09-17T20:01:13.542Z,20.90
2018-09-17T20:03:42.017Z,20.90
2018-09-17T20:06:16.020Z,20.90
2018-09-17T20:08:44.635Z,20.80
2018-09-17T20:11:13.555Z,20.80
2018-09-17T20:13:42.149Z,20.70
2018-09-17T20:16:10.655Z,20.70
2018-09-17T20:18:39.613Z,20.60
2018-09-17T20:21:08.286Z,20.60
2018-09-17T20:23:36.666Z,20.50
2018-09-17T20:26:05.045Z,20.50
2018-09-17T20:28:33.565Z,20.50
2018-09-17T20:31:02.096Z,20.50
2018-09-17T20:33:32.430Z,20.50
2018-09-17T20:36:00.972Z,20.50
2018-09-17T20:38:29.522Z,20.40
2018-09-17T20:40:57.934Z,20.50
2018-09-17T20:43:26.390Z,20.40
2018-09-17T20:45:54.756Z,20.40
2018-09-17T20:48:23.152Z,20.40
2018-09-17T20:50:51.542Z,20.30
2018-09-17T20:53:19.931Z,20.20
2018-09-17T20:55:48.475Z,20.10
2018-09-17T20:58:16.872Z,20.10
2018-09-17T21:00:45.286Z,20.10
2018-09-17T21:03:13.707Z,20.00
2018-09-17T21:05:42.100Z,20.00
2018-09-17T21:08:10.634Z,20.00
2018-09-17T21:10:39.508Z,19.90
2018-09-17T21:13:09.045Z,19.90
2018-09-17T21:15:37.659Z,19.80
2018-09-17T21:18:06.128Z,19.80
2018-09-17T21:20:34.563Z,19.70
2018-09-17T21:23:03.085Z,19.90
2018-09-17T21:25:31.609Z,19.70
2018-09-17T21:28:00.177Z,19.70
2018-09-17T21:30:28.582Z,19.60
2018-09-17T21:32:56.981Z,19.60
2018-09-17T21:35:25.439Z,19.50
2018-09-17T21:37:53.828Z,19.40
2018-09-17T21:40:22.299Z,19.20
2018-09-17T21:42:50.793Z,19.30
2018-09-17T21:45:19.177Z,19.10
2018-09-17T21:47:47.948Z,19.00
2018-09-17T21:50:16.363Z,19.00
2018-09-17T21:52:44.792Z,19.00
2018-09-17T21:55:13.808Z,19.00
2018-09-17T21:57:42.201Z,19.00
2018-09-17T22:00:11.053Z,19.10
2018-09-17T22:02:39.442Z,19.10
2018-09-17T22:05:07.967Z,19.10
2018-09-17T22:07:36.379Z,18.90
2018-09-17T22:10:04.920Z,18.90
2018-09-17T22:12:33.435Z,18.90
2018-09-17T22:15:01.821Z,18.80
2018-09-17T22:17:30.429Z,18.80
2018-09-17T22:19:58.862Z,18.70
2018-09-17T22:22:27.253Z,18.60
2018-09-17T22:24:55.574Z,18.50
2018-09-17T22:27:23.947Z,18.50
2018-09-17T22:29:52.384Z,18.50
2018-09-17T22:32:21.524Z,18.50
2018-09-17T22:34:50.431Z,18.30
2018-09-17T22:37:19.318Z,18.30
2018-09-17T22:39:47.753Z,18.20
2018-09-17T22:42:16.279Z,18.10
2018-09-17T22:44:44.552Z,18.00
2018-09-17T22:47:12.998Z,17.90
2018-09-17T22:49:41.389Z,17.90
2018-09-17T22:52:09.828Z,17.90
2018-09-17T22:54:38.420Z,17.90
2018-09-17T22:57:07.071Z,17.80
2018-09-17T22:59:35.587Z,17.70
2018-09-17T23:02:04.058Z,17.70
2018-09-17T23:04:32.537Z,17.70
2018-09-17T23:07:01.255Z,17.60
2018-09-17T23:09:29.655Z,17.70
2018-09-17T23:11:58.056Z,17.60
2018-09-17T23:14:26.524Z,17.50
2018-09-17T23:16:55.028Z,17.50
2018-09-17T23:19:24.868Z,17.40
2018-09-17T23:21:53.300Z,17.50
2018-09-17T23:24:21.701Z,17.40
2018-09-17T23:26:50.086Z,17.30
2018-09-17T23:29:18.476Z,17.30
2018-09-17T23:31:46.878Z,17.30
2018-09-17T23:34:15.802Z,17.30
2018-09-17T23:36:44.204Z,17.30
2018-09-17T23:39:13.116Z,17.20
2018-09-17T23:41:41.580Z,17.40
2018-09-17T23:44:09.972Z,17.40
2018-09-17T23:46:38.356Z,17.30
2018-09-17T23:49:06.764Z,17.30
2018-09-17T23:51:35.116Z,17.30
2018-09-17T23:54:03.506Z,17.30
2018-09-17T23:56:31.936Z,17.30
2018-09-17T23:59:00.392Z,17.30
